Time;durP1;ratioP1;P1;durP2;ratioP2;P2;SDS_P1;SDS_P2;PMS_P1;PMS_P2;Temp;Humidity;BMP_temperature;BMP_pressure;BME280_temperature;BME280_humidity;BME280_pressure;Samples;Min_cycle;Max_cycle;Signal;HPM_P1;HPM_P2
2022/06/15 00:01:24;;;;;;;2.50;0.88;;;;;;;24.83;44.04;101000.38;4963912;28;20053;-83
2022/06/15 00:04:10;;;;;;;3.92;1.10;;;;;;;24.84;44.06;101007.53;4970888;28;20045;-83
2022/06/15 00:06:56;;;;;;;2.17;1.00;;;;;;;24.82;44.21;101004.38;4958827;28;20054;-83
2022/06/15 00:09:41;;;;;;;7.63;1.30;;;;;;;24.80;43.82;101017.88;4961610;28;20038;-84
2022/06/15 00:12:27;;;;;;;4.47;0.90;;;;;;;24.75;44.28;101009.94;4968010;28;20420;-84
2022/06/15 00:15:14;;;;;;;3.05;1.63;;;;;;;24.72;43.99;101006.00;4962398;28;20054;-84
2022/06/15 00:18:00;;;;;;;3.05;0.85;;;;;;;24.65;44.61;100995.69;4963339;28;20527;-84
2022/06/15 00:20:46;;;;;;;1.85;1.00;;;;;;;24.64;44.46;100993.31;4958948;28;20074;-83
2022/06/15 00:23:35;;;;;;;6.32;1.17;;;;;;;24.67;44.25;101003.63;4976899;28;20054;-83
2022/06/15 00:26:22;;;;;;;2.58;0.73;;;;;;;24.64;44.34;101005.22;4967871;28;20046;-83
2022/06/15 00:29:09;;;;;;;3.55;1.08;;;;;;;24.62;44.33;101007.63;4960609;28;20199;-83
2022/06/15 00:31:54;;;;;;;4.03;0.90;;;;;;;24.56;44.46;100997.31;4960128;28;20444;-82
2022/06/15 00:34:40;;;;;;;5.07;1.30;;;;;;;24.56;44.63;101002.88;4964191;28;20066;-81
2022/06/15 00:37:28;;;;;;;5.30;1.23;;;;;;;24.52;43.91;101005.69;4962921;28;20530;-81
2022/06/15 00:40:14;;;;;;;2.10;0.88;;;;;;;24.51;44.74;101000.53;4960330;28;20463;-82
2022/06/15 00:43:00;;;;;;;3.63;1.00;;;;;;;24.46;45.42;100987.84;4975108;28;20408;-83
2022/06/15 00:45:46;;;;;;;4.90;1.42;;;;;;;24.50;45.09;101004.50;4965114;28;20527;-83
2022/06/15 00:48:31;;;;;;;4.00;1.30;;;;;;;24.32;45.26;100999.00;4976182;28;20412;-84
2022/06/15 00:51:19;;;;;;;7.28;1.17;;;;;;;24.32;45.91;101004.56;4977602;28;20058;-84
2022/06/15 00:54:06;;;;;;;8.82;1.58;;;;;;;24.32;45.25;100999.00;4955179;28;20058;-83
2022/06/15 00:56:54;;;;;;;3.88;1.08;;;;;;;24.43;45.78;101005.31;4954195;28;20066;-83
2022/06/15 00:59:54;;;;;;;4.30;1.00;;;;;;;24.48;45.32;101013.22;4974947;28;20050;-83
2022/06/15 01:02:42;;;;;;;2.88;1.25;;;;;;;24.47;45.67;101017.22;4984066;28;20041;-82
2022/06/15 01:05:41;;;;;;;3.83;1.17;;;;;;;24.47;45.68;101013.66;4967330;28;20058;-83
2022/06/15 01:08:45;;;;;;;5.30;2.28;;;;;;;24.55;45.51;101009.63;4961592;28;20116;-83
2022/06/15 01:11:58;;;;;;;4.75;1.27;;;;;;;24.54;45.50;101002.50;4957576;28;20050;-81
2022/06/15 01:15:05;;;;;;;5.10;1.17;;;;;;;24.45;45.75;101005.72;4971226;28;20042;-81
2022/06/15 01:18:16;;;;;;;2.67;1.38;;;;;;;24.46;45.92;101006.50;4968916;28;20054;-81
2022/06/15 01:21:04;;;;;;;5.35;1.17;;;;;;;24.34;45.85;100985.47;4979809;28;20085;-83
2022/06/15 01:24:16;;;;;;;4.20;1.17;;;;;;;24.43;46.13;101010.88;4970672;28;20045;-82
2022/06/15 01:27:08;;;;;;;3.90;1.17;;;;;;;24.43;46.19;101004.53;4978173;28;20049;-82
2022/06/15 01:30:20;;;;;;;10.70;1.50;;;;;;;24.34;46.43;100998.59;4961680;28;20053;-82
2022/06/15 01:33:18;;;;;;;7.55;1.52;;;;;;;24.24;46.82;101002.97;4964612;28;20058;-82
2022/06/15 01:36:24;;;;;;;6.40;2.13;;;;;;;24.19;47.05;100995.84;4962622;28;20520;-83
2022/06/15 01:39:20;;;;;;;10.98;2.13;;;;;;;23.89;47.61;100992.72;4973935;28;20113;-83
2022/06/15 01:42:22;;;;;;;6.80;1.60;;;;;;;23.82;47.81;100995.50;4970809;28;20050;-83
2022/06/15 01:45:12;;;;;;;3.97;1.52;;;;;;;23.75;47.95;100996.31;4984005;28;20038;-83
2022/06/15 01:48:02;;;;;;;5.40;1.40;;;;;;;23.73;48.25;101001.44;4954096;28;20053;-83
2022/06/15 01:51:00;;;;;;;3.38;1.20;;;;;;;23.68;47.87;100993.53;4967453;28;20046;-82
2022/06/15 01:53:58;;;;;;;3.00;2.17;;;;;;;23.74;48.15;100997.50;4972024;28;20050;-83
2022/06/15 01:56:47;;;;;;;7.32;1.10;;;;;;;23.99;48.04;101005.00;4974570;28;20045;-82
2022/06/15 01:59:46;;;;;;;2.92;1.10;;;;;;;23.99;47.90;101007.78;4972049;28;20427;-83
2022/06/15 02:02:40;;;;;;;7.68;1.42;;;;;;;24.04;47.83;101010.16;4966440;28;20050;-83
2022/06/15 02:05:40;;;;;;;2.93;1.40;;;;;;;24.15;47.30;101006.16;4976551;28;20054;-82
2022/06/15 02:08:49;;;;;;;3.83;1.23;;;;;;;24.06;47.45;101002.22;4982758;28;20647;-83
2022/06/15 02:11:39;;;;;;;8.70;1.35;;;;;;;24.08;47.55;101005.38;4948569;29;20054;-82
2022/06/15 02:14:35;;;;;;;4.20;1.40;;;;;;;24.01;47.81;100997.06;4952708;28;20578;-83
2022/06/15 02:17:26;;;;;;;4.60;1.42;;;;;;;23.84;48.44;100993.91;4955475;28;20058;-82
2022/06/15 02:20:28;;;;;;;2.17;1.40;;;;;;;23.88;48.26;100989.13;4967585;28;20049;-83
2022/06/15 02:23:17;;;;;;;5.82;1.55;;;;;;;23.78;48.34;100997.47;4969221;28;20054;-83
2022/06/15 02:26:04;;;;;;;4.72;1.50;;;;;;;23.76;48.42;100989.56;4990937;28;20046;-83
2022/06/15 02:28:55;;;;;;;5.43;1.08;;;;;;;23.74;48.84;100996.69;4972625;28;20050;-83
2022/06/15 02:31:41;;;;;;;11.65;1.58;;;;;;;23.72;49.35;100996.31;4975133;28;20107;-84
2022/06/15 02:34:28;;;;;;;8.20;1.50;;;;;;;23.66;48.67;100995.91;4971803;28;20050;-84
2022/06/15 02:37:15;;;;;;;5.00;1.60;;;;;;;23.67;49.42;101007.81;4975873;28;20062;-83
2022/06/15 02:40:03;;;;;;;9.40;1.48;;;;;;;23.77;49.36;101007.03;4973284;28;20119;-83
2022/06/15 02:42:53;;;;;;;3.67;1.33;;;;;;;23.79;49.05;101015.72;4969969;28;20058;-82
2022/06/15 02:45:41;;;;;;;6.05;1.67;;;;;;;23.82;48.91;101017.72;4988635;28;20058;-83
2022/06/15 02:48:27;;;;;;;3.63;1.30;;;;;;;23.81;48.89;101011.38;4978121;28;20053;-83
2022/06/15 02:51:12;;;;;;;5.18;1.50;;;;;;;23.84;49.16;101018.91;4975378;28;20054;-83
2022/06/15 02:54:08;;;;;;;3.72;1.38;;;;;;;23.82;49.04;101001.84;4973817;28;20519;-83
2022/06/15 02:56:56;;;;;;;3.35;1.55;;;;;;;23.74;49.11;101014.16;4976874;28;20582;-84
2022/06/15 02:59:45;;;;;;;8.73;2.72;;;;;;;23.85;49.26;101003.84;4974963;28;20046;-82
2022/06/15 03:02:32;;;;;;;5.80;1.67;;;;;;;23.68;49.34;101004.63;4976797;28;20058;-82
2022/06/15 03:05:18;;;;;;;2.45;1.33;;;;;;;23.60;49.76;101003.06;4986600;28;20038;-82
2022/06/15 03:08:04;;;;;;;6.05;1.88;;;;;;;23.72;49.26;101004.66;4985136;28;20512;-82
2022/06/15 03:10:52;;;;;;;5.43;1.35;;;;;;;23.85;49.11;101000.25;4988756;28;20058;-82
2022/06/15 03:13:42;;;;;;;4.82;1.33;;;;;;;23.90;48.88;100999.06;4983648;28;20101;-82
2022/06/15 03:16:27;;;;;;;5.60;1.40;;;;;;;23.88;49.01;101007.78;4975540;28;20053;-82
2022/06/15 03:19:14;;;;;;;3.97;1.42;;;;;;;23.93;49.13;100992.69;4979199;28;20058;-82
2022/06/15 03:22:01;;;;;;;5.18;1.70;;;;;;;23.92;49.09;100988.34;4979803;28;20046;-82
2022/06/15 03:24:48;;;;;;;4.78;1.38;;;;;;;23.85;49.31;100991.94;4965606;28;20050;-83
2022/06/15 03:27:36;;;;;;;4.55;1.42;;;;;;;23.85;49.18;100998.28;4970360;28;20053;-83
2022/06/15 03:30:22;;;;;;;7.63;1.63;;;;;;;23.87;49.13;100998.66;4975788;28;20054;-82
2022/06/15 03:33:18;;;;;;;2.78;1.77;;;;;;;23.76;49.58;100999.88;4980529;28;20050;-82
2022/06/15 03:36:04;;;;;;;2.50;1.50;;;;;;;23.84;49.58;101007.78;4978512;28;20053;-82
2022/06/15 03:38:51;;;;;;;4.90;1.90;;;;;;;23.88;49.31;101008.59;4977163;28;20058;-82
2022/06/15 03:41:45;;;;;;;2.55;1.42;;;;;;;23.88;49.72;101007.78;4978143;28;20053;-82
2022/06/15 03:44:31;;;;;;;12.43;1.80;;;;;;;23.91;49.57;101014.53;4978062;28;20066;-81
2022/06/15 03:47:18;;;;;;;4.85;2.10;;;;;;;23.85;49.46;101016.94;4974251;28;20042;-81
2022/06/15 03:50:04;;;;;;;3.83;1.60;;;;;;;23.92;49.19;101022.50;4978259;28;20050;-81
2022/06/15 03:52:50;;;;;;;10.10;2.15;;;;;;;23.97;49.22;101021.28;5004420;23;20053;-63
2022/06/15 03:55:37;;;;;;;13.77;2.83;;;;;;;24.06;48.98;101025.25;4991958;28;20065;-64
2022/06/15 03:58:27;;;;;;;4.10;1.60;;;;;;;24.01;49.19;101022.06;4993624;28;20045;-64
2022/06/15 04:01:13;;;;;;;9.70;2.17;;;;;;;24.05;49.27;101025.63;4986430;28;20046;-64
2022/06/15 04:03:58;;;;;;;6.15;1.65;;;;;;;24.06;49.23;101032.78;4973986;28;20046;-64
2022/06/15 04:06:48;;;;;;;3.47;2.03;;;;;;;24.09;49.16;101029.19;4981490;28;20057;-64
2022/06/15 04:09:35;;;;;;;7.95;1.48;;;;;;;24.16;49.01;101029.19;4977723;28;20058;-61
2022/06/15 04:12:23;;;;;;;12.75;1.85;;;;;;;24.16;49.11;101031.97;4973483;28;20053;-60
2022/06/15 04:15:10;;;;;;;10.15;1.83;;;;;;;24.09;49.44;101026.41;4973861;28;20043;-60
2022/06/15 04:18:00;;;;;;;9.35;1.77;;;;;;;23.97;49.82;101030.41;4973864;28;20045;-60
2022/06/15 04:21:03;;;;;;;7.85;1.95;;;;;;;24.10;49.52;101025.22;4973540;28;20050;-60
2022/06/15 04:23:49;;;;;;;4.10;1.52;;;;;;;24.17;49.50;101025.25;4970489;28;20053;-60
2022/06/15 04:26:34;;;;;;;9.90;2.20;;;;;;;24.32;49.11;101028.78;4972603;28;20050;-62
2022/06/15 04:29:21;;;;;;;6.35;1.70;;;;;;;24.50;48.61;101021.97;4970502;28;20057;-62
2022/06/15 04:32:07;;;;;;;3.97;1.75;;;;;;;24.66;48.32;101030.66;4973252;28;20053;-60
2022/06/15 04:34:52;;;;;;;4.78;1.65;;;;;;;24.89;47.73;101032.19;4973358;28;20046;-62
2022/06/15 04:37:37;;;;;;;4.20;2.28;;;;;;;25.04;47.48;101030.91;4973468;28;20050;-61
2022/06/15 04:40:31;;;;;;;10.37;2.03;;;;;;;25.05;47.47;101033.28;4976082;28;20042;-61
2022/06/15 04:43:17;;;;;;;20.17;2.72;;;;;;;25.20;47.39;101033.97;4973230;28;20047;-62
2022/06/15 04:46:03;;;;;;;20.77;2.65;;;;;;;25.29;47.24;101023.22;4972487;28;20045;-62
2022/06/15 04:48:49;;;;;;;19.63;1.95;;;;;;;25.28;47.15;101027.19;4972723;28;20042;-61
2022/06/15 04:51:40;;;;;;;7.13;1.83;;;;;;;25.27;47.32;101030.38;4991402;28;20068;-62
2022/06/15 04:54:26;;;;;;;8.05;1.90;;;;;;;25.27;47.20;101033.16;4973303;28;20058;-62
2022/06/15 04:57:15;;;;;;;9.02;2.55;;;;;;;25.24;47.09;101040.34;4969985;28;20501;-62
2022/06/15 05:00:01;;;;;;;8.18;1.98;;;;;;;25.27;47.40;101035.94;4973202;28;20070;-61
2022/06/15 05:02:47;;;;;;;19.60;3.38;;;;;;;25.37;47.31;101041.44;4981910;28;20046;-62
2022/06/15 05:05:34;;;;;;;12.07;2.42;;;;;;;25.42;47.06;101038.22;4972957;28;20486;-64
2022/06/15 05:08:24;;;;;;;6.22;2.17;;;;;;;25.48;47.23;101036.59;4971597;28;20069;-64
2022/06/15 05:11:09;;;;;;;10.13;2.78;;;;;;;25.49;47.32;101043.75;4987864;28;20513;-64
2022/06/15 05:13:55;;;;;;;14.45;2.90;;;;;;;25.58;46.85;101045.31;4962493;28;20049;-63
2022/06/15 05:16:41;;;;;;;13.23;2.67;;;;;;;25.63;46.83;101042.06;4972647;28;20072;-63
2022/06/15 05:19:31;;;;;;;12.38;2.92;;;;;;;25.62;46.83;101048.84;4972583;28;20613;-63
2022/06/15 05:22:17;;;;;;;14.07;3.50;;;;;;;25.63;46.80;101050.44;4972463;28;20054;-63
2022/06/15 05:25:05;;;;;;;14.50;2.95;;;;;;;25.72;46.38;101051.56;4972198;28;20050;-63
2022/06/15 05:27:51;;;;;;;12.98;2.42;;;;;;;25.69;46.14;101052.38;4972566;28;20494;-64
2022/06/15 05:30:36;;;;;;;15.77;3.03;;;;;;;25.78;46.13;101052.69;4972108;28;20120;-64
2022/06/15 05:33:22;;;;;;;10.80;2.47;;;;;;;25.80;46.29;101049.50;4953647;29;20051;-64
2022/06/15 05:36:11;;;;;;;23.70;3.00;;;;;;;25.82;46.22;101061.81;4974700;28;20050;-64
2022/06/15 05:38:57;;;;;;;8.40;2.25;;;;;;;25.89;45.91;101058.19;4987907;28;20065;-63
2022/06/15 05:41:43;;;;;;;23.75;3.33;;;;;;;25.97;46.05;101056.91;4972536;28;20062;-63
2022/06/15 05:47:32;;;;;;;11.63;2.00;;;;;;;26.20;45.21;101059.09;4971412;28;20058;-64
2022/06/15 05:50:43;;;;;;;14.02;2.70;;;;;;;26.27;44.91;101068.19;4976141;28;20046;-62
2022/06/15 05:53:33;;;;;;;6.72;2.35;;;;;;;26.45;44.19;101070.03;4971987;28;20520;-62
2022/06/15 05:56:18;;;;;;;5.20;2.10;;;;;;;26.67;43.19;101062.97;4971852;28;20513;-62
2022/06/15 05:59:03;;;;;;;13.30;2.40;;;;;;;26.84;42.62;101070.34;4969361;28;20054;-64
2022/06/15 06:01:48;;;;;;;7.60;2.70;;;;;;;26.95;42.30;101054.28;4971830;28;20042;-63
2022/06/15 06:04:34;;;;;;;11.90;2.38;;;;;;;27.07;41.23;101055.75;4971851;28;20050;-65
2022/06/15 06:07:21;;;;;;;19.85;2.38;;;;;;;26.79;38.66;101057.66;4971912;28;20082;-64
2022/06/15 06:10:07;;;;;;;6.25;1.60;;;;;;;26.59;38.42;101055.91;4970462;28;20039;-63
2022/06/15 06:12:51;;;;;;;3.75;1.50;;;;;;;26.26;39.67;101055.47;4972202;28;20050;-64
2022/06/15 06:15:36;;;;;;;6.32;1.50;;;;;;;26.43;38.42;101045.31;4971239;28;20054;-62
2022/06/15 06:18:25;;;;;;;8.43;0.95;;;;;;;26.33;38.36;101044.22;4971888;28;20050;-65
2022/06/15 06:21:10;;;;;;;3.72;1.02;;;;;;;26.67;37.26;101049.03;4975535;28;20241;-64
2022/06/15 06:23:55;;;;;;;5.57;1.33;;;;;;;26.67;37.64;101038.66;4976176;28;20069;-64
2022/06/15 06:26:42;;;;;;;6.80;1.42;;;;;;;26.59;36.99;101045.53;4979282;28;20050;-64
2022/06/15 06:29:29;;;;;;;7.13;1.40;;;;;;;26.55;37.16;101041.22;4975243;28;20049;-64
2022/06/15 06:32:16;;;;;;;5.88;1.25;;;;;;;26.35;35.94;101052.19;4975530;28;20046;-64
2022/06/15 06:35:01;;;;;;;6.15;1.25;;;;;;;26.49;36.34;101060.41;4969982;28;20053;-63
2022/06/15 06:37:46;;;;;;;9.65;1.35;;;;;;;26.67;37.10;101047.03;4972661;28;20041;-63
2022/06/15 06:40:32;;;;;;;4.30;1.30;;;;;;;26.50;36.20;101045.25;4974662;28;20054;-64
2022/06/15 06:43:17;;;;;;;7.50;1.48;;;;;;;26.85;36.87;101048.81;4978148;28;20041;-63
2022/06/15 06:46:01;;;;;;;4.00;1.30;;;;;;;26.67;37.61;101044.22;4974286;28;20513;-64
2022/06/15 06:48:46;;;;;;;8.10;1.25;;;;;;;26.91;37.02;101045.19;4974295;28;20406;-62
2022/06/15 06:51:33;;;;;;;13.80;1.95;;;;;;;27.17;36.82;101054.81;4986139;28;20501;-60
2022/06/15 06:54:22;;;;;;;1.38;0.70;;;;;;;27.93;34.92;101040.06;4982797;28;20034;-65
2022/06/15 06:57:06;;;;;;;6.05;1.83;;;;;;;28.54;33.24;101036.16;4981891;28;20053;-64
2022/06/15 06:59:51;;;;;;;2.33;1.17;;;;;;;28.67;32.92;101043.44;4971869;28;20069;-66
2022/06/15 07:02:36;;;;;;;4.97;1.80;;;;;;;27.93;35.73;101048.44;4977334;28;20061;-65
2022/06/15 07:05:21;;;;;;;9.07;1.83;;;;;;;27.21;37.13;101050.75;4964533;28;20050;-65
2022/06/15 07:08:12;;;;;;;3.13;1.10;;;;;;;27.32;36.72;101050.59;4958302;28;20058;-64
2022/06/15 07:10:56;;;;;;;6.25;1.63;;;;;;;28.53;35.65;101057.75;4955582;28;20610;-64
2022/06/15 07:13:41;;;;;;;5.72;1.67;;;;;;;29.80;32.91;101058.94;4955722;28;20070;-64
2022/06/15 07:16:27;;;;;;;8.70;2.63;;;;;;;29.46;33.89;101059.38;4956171;28;20046;-64
2022/06/15 07:19:12;;;;;;;8.70;1.30;;;;;;;29.06;34.22;101058.66;4971107;28;20505;-62
2022/06/15 07:21:56;;;;;;;9.07;1.75;;;;;;;28.21;34.67;101058.34;4974884;28;20505;-61
2022/06/15 07:24:41;;;;;;;2.33;1.48;;;;;;;27.83;35.17;101057.00;4965255;28;20422;-61
2022/06/15 07:27:27;;;;;;;6.68;1.45;;;;;;;27.31;36.76;101059.38;4974094;28;20075;-61
2022/06/15 07:30:17;;;;;;;2.28;1.27;;;;;;;27.44;35.45;101063.16;4964341;28;20420;-62
2022/06/15 07:33:02;;;;;;;2.80;1.05;;;;;;;27.70;34.97;101067.19;4969353;28;20304;-61
2022/06/15 07:35:47;;;;;;;4.00;1.67;;;;;;;27.58;35.35;101063.75;4979309;28;20045;-62
2022/06/15 07:38:32;;;;;;;8.95;2.25;;;;;;;27.63;35.74;101074.47;4959576;28;20057;-63
2022/06/15 07:41:17;;;;;;;5.68;1.92;;;;;;;27.83;34.64;101059.81;4964891;28;20066;-62
2022/06/15 07:44:02;;;;;;;4.75;1.27;;;;;;;27.71;35.48;101055.59;4950326;28;20105;-63
2022/06/15 07:46:48;;;;;;;17.38;1.38;;;;;;;27.79;35.78;101050.66;4954985;28;20054;-64
2022/06/15 07:52:46;;;;;;;5.57;1.13;;;;;;;28.02;36.03;101056.25;4955713;28;20057;-64
2022/06/15 07:55:33;;;;;;;;;;;;;;;28.03;35.13;101067.03;4959251;28;20435;-61
2022/06/15 07:58:18;;;;;;;8.48;1.40;;;;;;;28.16;34.46;101058.03;4960569;28;19918;-60
2022/06/15 08:01:03;;;;;;;1.95;1.23;;;;;;;28.30;34.53;101072.56;4963957;28;20046;-61
2022/06/15 08:03:48;;;;;;;3.33;1.10;;;;;;;27.89;35.31;101064.47;4966523;28;20057;-61
2022/06/15 08:06:37;;;;;;;3.53;1.10;;;;;;;28.24;34.98;101067.91;4959414;28;20426;-65
2022/06/15 08:09:22;;;;;;;2.05;1.08;;;;;;;28.07;34.53;101069.75;4956501;28;20070;-63
2022/06/15 08:12:11;;;;;;;4.60;1.33;;;;;;;28.45;33.40;101064.69;4976500;28;20066;-64
2022/06/15 08:14:58;;;;;;;5.97;0.93;;;;;;;28.62;33.54;101066.34;4979159;28;20050;-65
2022/06/15 08:17:49;;;;;;;4.25;1.27;;;;;;;28.46;33.22;101075.44;4967649;28;20042;-63
2022/06/15 08:20:44;;;;;;;5.43;1.77;;;;;;;28.12;34.48;101066.50;4960250;28;20054;-64
2022/06/15 08:23:34;;;;;;;3.00;1.25;;;;;;;28.60;33.79;101065.97;4945464;28;20054;-64
2022/06/15 08:26:23;;;;;;;6.32;1.52;;;;;;;28.33;34.42;101062.53;4954846;28;20526;-64
2022/06/15 08:29:12;;;;;;;5.00;1.42;;;;;;;28.60;33.56;101057.59;4952916;28;20065;-61
2022/06/15 08:31:57;;;;;;;2.33;1.10;;;;;;;28.91;33.31;101053.38;4971282;28;20050;-67
2022/06/15 08:34:42;;;;;;;4.40;1.17;;;;;;;28.58;33.63;101051.63;4966073;28;20956;-63
2022/06/15 08:37:27;;;;;;;3.58;1.17;;;;;;;28.54;33.10;101050.13;4955044;28;20050;-62
2022/06/15 08:40:13;;;;;;;5.78;1.30;;;;;;;29.13;32.12;101056.50;4952371;28;20050;-63
2022/06/15 08:43:10;;;;;;;3.90;1.17;;;;;;;29.00;32.89;101061.19;4960651;28;20050;-62
2022/06/15 08:46:02;;;;;;;1.27;0.70;;;;;;;29.06;32.16;101053.03;4959278;28;20039;-64
2022/06/15 08:49:13;;;;;;;3.03;0.75;;;;;;;28.92;32.34;101054.16;4956029;28;20046;-63
2022/06/15 08:52:06;;;;;;;3.65;1.38;;;;;;;28.92;32.04;101048.56;4960407;28;20510;-64
2022/06/15 08:54:59;;;;;;;6.25;1.92;;;;;;;29.12;32.51;101056.91;4964076;28;20058;-64
2022/06/15 08:57:49;;;;;;;30.98;6.13;;;;;;;29.22;32.89;101048.28;4959415;28;20062;-68
2022/06/15 09:00:38;;;;;;;6.10;1.42;;;;;;;29.39;32.94;101051.94;4965340;28;20050;-67
2022/06/15 09:03:47;;;;;;;4.53;1.40;;;;;;;34.51;23.98;101051.81;4970535;28;20049;-64
2022/06/15 09:07:00;;;;;;;3.25;1.40;;;;;;;35.54;23.21;101056.28;4970936;28;20428;-65
2022/06/15 09:10:07;;;;;;;5.07;1.30;;;;;;;33.10;26.33;101047.25;4953559;28;20054;-64
2022/06/15 09:13:25;;;;;;;4.68;1.58;;;;;;;34.87;24.77;101053.84;4970145;28;20053;-66
2022/06/15 09:16:24;;;;;;;4.68;1.27;;;;;;;36.03;22.57;101055.03;4969986;28;20042;-63
2022/06/15 09:19:22;;;;;;;2.30;1.45;;;;;;;36.43;22.17;101057.38;4952791;28;20054;-66
2022/06/15 09:22:16;;;;;;;6.50;1.23;;;;;;;35.13;23.46;101059.88;4953324;29;20046;-61
2022/06/15 09:25:13;;;;;;;1.58;1.00;;;;;;;34.49;24.08;101048.69;4950865;28;20042;-63
2022/06/15 09:28:04;;;;;;;4.75;1.08;;;;;;;33.71;25.20;101045.66;4961612;28;20050;-64
2022/06/15 09:30:50;;;;;;;3.30;1.10;;;;;;;33.15;26.80;101043.03;4953113;28;20058;-63
2022/06/15 09:33:45;;;;;;;4.97;1.55;;;;;;;32.72;26.64;101036.22;4962192;28;20046;-63
2022/06/15 09:36:37;;;;;;;6.93;1.02;;;;;;;32.51;27.73;101042.66;4966652;28;20069;-62
2022/06/15 09:39:25;;;;;;;6.03;1.88;;;;;;;32.21;28.04;101046.94;4970212;28;20054;-63
2022/06/15 09:42:34;;;;;;;8.85;1.30;;;;;;;31.89;28.61;101041.63;4979562;28;20053;-62
2022/06/15 09:45:45;;;;;;;4.32;1.08;;;;;;;31.79;28.22;101029.50;4952668;28;20061;-62
2022/06/15 09:48:52;;;;;;;4.90;1.30;;;;;;;31.74;28.50;101038.50;4967270;28;20069;-63
2022/06/15 09:51:39;;;;;;;7.10;1.60;;;;;;;31.62;28.86;101036.50;4972271;28;20107;-62
2022/06/15 09:54:33;;;;;;;5.13;1.33;;;;;;;31.57;29.49;101035.03;4968434;28;20065;-62
2022/06/15 09:57:18;;;;;;;;;;;;;;;31.57;29.39;101032.22;4953947;28;20123;-62
2022/06/15 10:00:06;;;;;;;4.40;1.33;;;;;;;31.50;29.60;101032.41;4986091;23;19926;-82
2022/06/15 10:03:01;;;;;;;2.63;1.35;;;;;;;31.55;29.57;101028.25;4982455;28;20042;-83
2022/06/15 10:05:49;;;;;;;3.85;0.93;;;;;;;31.51;28.99;101021.97;4987193;28;20061;-82
2022/06/15 10:08:33;;;;;;;9.77;1.60;;;;;;;31.43;29.10;101018.63;4989492;28;20045;-83
2022/06/15 10:11:27;;;;;;;1.35;0.90;;;;;;;31.50;29.01;101018.38;4984957;28;20132;-83
2022/06/15 10:14:23;;;;;;;6.43;1.42;;;;;;;31.57;28.97;101011.75;4989054;28;20046;-83
2022/06/15 10:17:22;;;;;;;5.95;1.20;;;;;;;31.49;28.69;101007.59;4995386;28;20045;-83
2022/06/15 10:20:20;;;;;;;6.95;1.60;;;;;;;31.53;29.10;101003.41;4991583;28;20046;-83
2022/06/15 10:23:19;;;;;;;4.20;2.13;;;;;;;31.59;29.23;101001.66;4992801;28;20053;-83
2022/06/15 10:26:04;;;;;;;2.78;1.08;;;;;;;31.48;29.75;101011.63;4993303;28;20049;-83
2022/06/15 10:28:49;;;;;;;3.92;1.63;;;;;;;31.53;29.06;101017.47;5008840;28;20048;-84
2022/06/15 10:31:34;;;;;;;3.90;1.20;;;;;;;31.59;29.57;101018.53;5017808;28;20117;-83
2022/06/15 10:34:29;;;;;;;10.77;1.52;;;;;;;31.69;28.83;101008.94;5005703;28;20439;-83
2022/06/15 10:37:34;;;;;;;4.80;2.05;;;;;;;31.65;28.75;101013.88;4991817;28;20420;-83
2022/06/15 10:40:29;;;;;;;4.50;1.38;;;;;;;31.62;29.42;101000.72;4992155;28;20058;-83
2022/06/15 10:43:13;;;;;;;2.60;1.40;;;;;;;31.64;28.87;101000.28;4992109;28;20041;-83
2022/06/15 10:46:02;;;;;;;5.30;1.40;;;;;;;31.69;29.13;101003.31;5003830;28;20603;-83
2022/06/15 10:48:54;;;;;;;5.78;1.10;;;;;;;31.70;29.12;100995.63;4994663;28;20419;-83
2022/06/15 10:51:39;;;;;;;1.38;1.10;;;;;;;31.58;29.22;100990.84;4986133;28;20054;-83
2022/06/15 10:54:33;;;;;;;2.83;1.10;;;;;;;31.63;29.22;100990.28;5004491;28;20049;-84
2022/06/15 11:03:33;;;;;;;9.18;2.15;;;;;;;31.70;28.80;100981.56;4994326;28;20049;-84
2022/06/15 11:06:19;;;;;;;4.00;1.27;;;;;;;31.65;29.28;100962.47;4995588;28;20538;-82
2022/06/15 11:09:07;;;;;;;3.65;1.50;;;;;;;31.83;29.77;100968.28;4997779;28;20052;-83
2022/06/15 11:11:52;;;;;;;1.77;1.25;;;;;;;31.84;29.70;100965.00;5001350;28;20053;-83
2022/06/15 11:15:04;;;;;;;3.10;1.40;;;;;;;31.72;29.49;100967.84;5005179;28;20434;-83
2022/06/15 11:18:20;;;;;;;4.65;1.88;;;;;;;31.72;30.10;100974.25;5008925;28;20069;-83
2022/06/15 11:21:12;;;;;;;4.53;1.63;;;;;;;31.66;30.23;100970.44;5016658;28;20037;-83
2022/06/15 11:24:33;;;;;;;5.40;2.03;;;;;;;31.91;29.95;100980.84;4991263;28;20046;-81
2022/06/15 11:27:38;;;;;;;4.25;1.60;;;;;;;32.00;29.61;100986.53;5000613;28;20060;-82
2022/06/15 11:30:28;;;;;;;4.90;1.73;;;;;;;31.93;30.05;100972.72;5002212;28;20045;-82
2022/06/15 11:33:24;;;;;;;1.85;1.23;;;;;;;31.90;30.25;100973.63;4983410;28;20514;-82
2022/06/15 11:36:30;;;;;;;2.78;1.10;;;;;;;31.87;30.47;100968.91;4997846;28;20069;-82
2022/06/15 11:39:36;;;;;;;3.88;1.85;;;;;;;32.16;30.11;100969.50;4987690;28;20044;-81
2022/06/15 11:42:28;;;;;;;3.28;1.15;;;;;;;32.20;30.44;100969.38;4998109;28;20061;-81
2022/06/15 11:45:16;;;;;;;3.33;1.20;;;;;;;32.10;30.44;100965.66;4994303;28;20041;-82
2022/06/15 11:48:17;;;;;;;3.50;1.70;;;;;;;31.96;30.39;100966.19;4999501;28;20419;-82
2022/06/15 11:51:39;;;;;;;1.75;1.30;;;;;;;31.99;30.71;100958.88;4998562;28;20037;-81
2022/06/15 11:54:48;;;;;;;2.15;1.40;;;;;;;32.09;30.77;100957.69;4998888;28;20523;-82
2022/06/15 11:58:03;;;;;;;3.33;1.55;;;;;;;32.05;30.79;100960.63;4988480;28;20050;-82
2022/06/15 12:01:11;;;;;;;5.85;1.75;;;;;;;31.99;30.72;100958.88;4995842;28;20037;-81
2022/06/15 12:04:43;;;;;;;7.25;1.70;;;;;;;32.28;30.91;100953.78;4991637;28;20053;-81
2022/06/15 12:08:04;;;;;;;4.72;1.60;;;;;;;32.39;30.49;100950.59;5013436;28;20538;-83
2022/06/15 12:10:52;;;;;;;5.65;1.70;;;;;;;32.33;30.90;100949.59;5002479;28;20041;-82
2022/06/15 12:13:49;;;;;;;6.63;1.73;;;;;;;32.31;30.50;100952.88;5000668;28;20057;-84
2022/06/15 12:16:45;;;;;;;9.35;1.90;;;;;;;32.38;30.32;100934.94;4999462;28;20049;-83
2022/06/15 12:19:39;;;;;;;337.17;67.18;;;;;;;32.38;30.61;100934.94;4996765;28;20069;-84
2022/06/15 12:22:37;;;;;;;62.22;12.30;;;;;;;32.38;29.92;100927.28;5002181;28;20034;-85
2022/06/15 12:25:40;;;;;;;32.33;7.35;;;;;;;32.35;30.44;100931.03;5001792;28;20034;-85
2022/06/15 12:29:01;;;;;;;55.08;13.00;;;;;;;32.30;30.82;100942.09;4998354;28;20484;-85
2022/06/15 12:35:26;;;;;;;19.67;4.32;;;;;;;32.12;31.09;100935.06;5003357;28;20030;-85
2022/06/15 12:38:30;;;;;;;17.45;4.85;;;;;;;32.21;31.08;100937.94;4994735;28;20050;-84
2022/06/15 12:44:35;;;;;;;;;;;;;;;32.05;31.30;100928.91;4996663;28;19914;-86
2022/06/15 12:47:23;;;;;;;15.15;3.50;;;;;;;31.96;31.75;100934.44;4988591;28;19914;-83
2022/06/15 12:50:17;;;;;;;11.77;3.15;;;;;;;32.02;31.53;100932.63;5000448;28;20049;-84
2022/06/15 12:53:11;;;;;;;7.35;2.45;;;;;;;32.00;31.83;100916.19;4999710;28;20045;-83
2022/06/15 12:56:35;;;;;;;6.97;2.03;;;;;;;32.00;31.99;100924.63;4999103;28;20061;-84
2022/06/15 12:59:41;;;;;;;30.60;2.88;;;;;;;32.12;31.83;100917.41;4999341;28;20053;-84
2022/06/15 13:02:41;;;;;;;14.30;2.58;;;;;;;32.10;32.18;100912.19;5002373;28;20069;-83
2022/06/15 13:05:31;;;;;;;16.00;2.35;;;;;;;32.03;31.92;100909.66;4997588;28;20042;-83
2022/06/15 13:08:20;;;;;;;4.72;1.83;;;;;;;31.94;32.13;100911.63;5003363;28;20038;-83
2022/06/15 13:11:12;;;;;;;14.35;1.92;;;;;;;31.84;32.34;100910.78;4993802;28;20037;-83
2022/06/15 13:14:12;;;;;;;4.97;1.83;;;;;;;31.82;32.23;100904.81;4992227;28;20046;-83
2022/06/15 13:17:15;;;;;;;6.97;2.17;;;;;;;31.79;32.34;100902.91;4998343;28;20054;-83
2022/06/15 13:20:05;;;;;;;3.28;1.90;;;;;;;31.90;32.20;100891.28;4998535;28;20122;-83
2022/06/15 13:22:50;;;;;;;3.00;1.95;;;;;;;31.84;32.75;100899.53;4991049;28;20041;-83
2022/06/15 13:25:50;;;;;;;3.55;1.90;;;;;;;31.75;32.37;100894.59;4997671;28;20054;-83
2022/06/15 13:28:40;;;;;;;3.03;1.75;;;;;;;31.85;32.31;100901.06;4998422;28;20049;-83
2022/06/15 13:31:58;;;;;;;9.85;2.05;;;;;;;31.90;32.57;100894.84;4995413;28;20069;-83
2022/06/15 13:34:44;;;;;;;5.20;2.00;;;;;;;32.05;32.03;100884.63;4990356;28;20058;-83
2022/06/15 13:37:33;;;;;;;4.80;2.38;;;;;;;32.05;32.42;100881.06;5000866;28;20428;-83